sensor_id;sensor_type;location;lat;lon;timestamp;P1;durP1;ratioP1;P2;durP2;ratioP2
40701;SDS011;26387;50.114;8.662;2022-10-26T00:00:24;10.20;;;5.22;;
40701;SDS011;26387;50.114;8.662;2022-10-26T00:02:52;13.75;;;5.35;;
40701;SDS011;26387;50.114;8.662;2022-10-26T00:05:21;16.13;;;5.72;;
40701;SDS011;26387;50.114;8.662;2022-10-26T00:07:48;17.77;;;5.90;;
40701;SDS011;26387;50.114;8.662;2022-10-26T00:10:14;11.27;;;5.28;;
40701;SDS011;26387;50.114;8.662;2022-10-26T00:12:39;11.18;;;5.20;;
40701;SDS011;26387;50.114;8.662;2022-10-26T00:15:05;13.55;;;5.65;;
40701;SDS011;26387;50.114;8.662;2022-10-26T00:17:32;14.93;;;5.60;;
40701;SDS011;26387;50.114;8.662;2022-10-26T00:19:57;9.95;;;4.95;;
40701;SDS011;26387;50.114;8.662;2022-10-26T00:22:24;17.80;;;5.65;;
40701;SDS011;26387;50.114;8.662;2022-10-26T00:24:50;10.77;;;5.28;;
40701;SDS011;26387;50.114;8.662;2022-10-26T00:27:16;16.60;;;5.80;;
40701;SDS011;26387;50.114;8.662;2022-10-26T00:29:41;10.60;;;5.25;;
40701;SDS011;26387;50.114;8.662;2022-10-26T00:32:07;14.13;;;5.35;;
40701;SDS011;26387;50.114;8.662;2022-10-26T00:34:32;12.65;;;5.47;;
40701;SDS011;26387;50.114;8.662;2022-10-26T00:36:58;12.10;;;5.28;;
40701;SDS011;26387;50.114;8.662;2022-10-26T00:39:24;14.13;;;5.60;;
40701;SDS011;26387;50.114;8.662;2022-10-26T00:41:49;10.98;;;5.38;;
40701;SDS011;26387;50.114;8.662;2022-10-26T00:47:15;13.90;;;5.80;;
40701;SDS011;26387;50.114;8.662;2022-10-26T00:49:44;8.77;;;3.60;;
40701;SDS011;26387;50.114;8.662;2022-10-26T00:52:12;13.68;;;5.70;;
40701;SDS011;26387;50.114;8.662;2022-10-26T00:54:40;12.13;;;5.15;;
40701;SDS011;26387;50.114;8.662;2022-10-26T00:57:07;15.10;;;5.05;;
40701;SDS011;26387;50.114;8.662;2022-10-26T00:59:32;13.27;;;5.07;;
40701;SDS011;26387;50.114;8.662;2022-10-26T01:01:58;10.95;;;5.32;;
40701;SDS011;26387;50.114;8.662;2022-10-26T01:04:24;10.60;;;5.03;;
40701;SDS011;26387;50.114;8.662;2022-10-26T01:06:50;10.93;;;5.72;;
40701;SDS011;26387;50.114;8.662;2022-10-26T01:09:16;10.07;;;5.03;;
40701;SDS011;26387;50.114;8.662;2022-10-26T01:11:44;17.15;;;5.45;;
40701;SDS011;26387;50.114;8.662;2022-10-26T01:14:10;10.80;;;4.60;;
40701;SDS011;26387;50.114;8.662;2022-10-26T01:19:08;10.05;;;4.88;;
40701;SDS011;26387;50.114;8.662;2022-10-26T01:24:34;16.52;;;4.80;;
40701;SDS011;26387;50.114;8.662;2022-10-26T01:27:26;9.50;;;4.22;;
40701;SDS011;26387;50.114;8.662;2022-10-26T01:38:01;13.32;;;4.72;;
40701;SDS011;26387;50.114;8.662;2022-10-26T01:40:39;9.85;;;4.10;;
40701;SDS011;26387;50.114;8.662;2022-10-26T01:43:17;14.73;;;4.22;;
40701;SDS011;26387;50.114;8.662;2022-10-26T01:45:44;10.80;;;3.97;;
40701;SDS011;26387;50.114;8.662;2022-10-26T01:48:12;15.40;;;4.80;;
40701;SDS011;26387;50.114;8.662;2022-10-26T01:50:41;11.57;;;4.78;;
40701;SDS011;26387;50.114;8.662;2022-10-26T01:53:12;15.18;;;5.35;;
40701;SDS011;26387;50.114;8.662;2022-10-26T01:58:22;12.93;;;5.07;;
40701;SDS011;26387;50.114;8.662;2022-10-26T02:00:58;12.75;;;5.63;;
40701;SDS011;26387;50.114;8.662;2022-10-26T02:06:53;9.68;;;5.00;;
40701;SDS011;26387;50.114;8.662;2022-10-26T02:14:49;14.23;;;5.47;;
40701;SDS011;26387;50.114;8.662;2022-10-26T02:19:56;8.68;;;5.03;;
40701;SDS011;26387;50.114;8.662;2022-10-26T02:22:33;12.85;;;5.07;;
40701;SDS011;26387;50.114;8.662;2022-10-26T02:25:09;12.27;;;4.70;;
40701;SDS011;26387;50.114;8.662;2022-10-26T02:27:41;11.02;;;4.45;;
40701;SDS011;26387;50.114;8.662;2022-10-26T02:30:11;11.43;;;5.07;;
40701;SDS011;26387;50.114;8.662;2022-10-26T02:32:38;12.05;;;4.80;;
40701;SDS011;26387;50.114;8.662;2022-10-26T02:35:08;12.23;;;4.68;;
40701;SDS011;26387;50.114;8.662;2022-10-26T02:37:35;10.88;;;4.00;;
40701;SDS011;26387;50.114;8.662;2022-10-26T02:40:03;10.90;;;4.20;;
40701;SDS011;26387;50.114;8.662;2022-10-26T02:42:33;9.63;;;4.45;;
40701;SDS011;26387;50.114;8.662;2022-10-26T02:45:05;10.05;;;4.03;;
40701;SDS011;26387;50.114;8.662;2022-10-26T02:47:33;9.73;;;4.32;;
40701;SDS011;26387;50.114;8.662;2022-10-26T02:49:59;9.13;;;4.65;;
40701;SDS011;26387;50.114;8.662;2022-10-26T02:52:27;13.93;;;5.03;;
40701;SDS011;26387;50.114;8.662;2022-10-26T02:55:29;8.68;;;4.05;;
40701;SDS011;26387;50.114;8.662;2022-10-26T02:58:03;10.57;;;4.28;;
40701;SDS011;26387;50.114;8.662;2022-10-26T03:00:36;8.18;;;4.18;;
40701;SDS011;26387;50.114;8.662;2022-10-26T03:03:02;6.82;;;3.83;;
40701;SDS011;26387;50.114;8.662;2022-10-26T03:05:32;11.32;;;3.92;;
40701;SDS011;26387;50.114;8.662;2022-10-26T03:07:58;10.68;;;4.32;;
40701;SDS011;26387;50.114;8.662;2022-10-26T03:10:24;11.20;;;3.80;;
40701;SDS011;26387;50.114;8.662;2022-10-26T03:12:51;9.48;;;3.78;;
40701;SDS011;26387;50.114;8.662;2022-10-26T03:15:17;9.18;;;3.75;;
40701;SDS011;26387;50.114;8.662;2022-10-26T03:17:43;6.43;;;4.13;;
40701;SDS011;26387;50.114;8.662;2022-10-26T03:20:08;10.32;;;3.53;;
40701;SDS011;26387;50.114;8.662;2022-10-26T03:22:35;10.68;;;4.03;;
40701;SDS011;26387;50.114;8.662;2022-10-26T03:25:00;11.98;;;3.60;;
40701;SDS011;26387;50.114;8.662;2022-10-26T03:27:26;11.23;;;3.90;;
40701;SDS011;26387;50.114;8.662;2022-10-26T03:29:52;10.90;;;4.30;;
40701;SDS011;26387;50.114;8.662;2022-10-26T03:32:18;9.75;;;4.13;;
40701;SDS011;26387;50.114;8.662;2022-10-26T03:34:44;15.30;;;4.13;;
40701;SDS011;26387;50.114;8.662;2022-10-26T03:37:09;12.38;;;3.95;;
40701;SDS011;26387;50.114;8.662;2022-10-26T03:39:35;11.85;;;3.90;;
40701;SDS011;26387;50.114;8.662;2022-10-26T03:42:00;8.05;;;4.03;;
40701;SDS011;26387;50.114;8.662;2022-10-26T03:44:26;12.15;;;4.55;;
40701;SDS011;26387;50.114;8.662;2022-10-26T03:46:52;11.40;;;4.30;;
40701;SDS011;26387;50.114;8.662;2022-10-26T03:49:17;9.27;;;3.78;;
40701;SDS011;26387;50.114;8.662;2022-10-26T03:51:43;12.98;;;4.70;;
40701;SDS011;26387;50.114;8.662;2022-10-26T03:54:08;12.55;;;4.70;;
40701;SDS011;26387;50.114;8.662;2022-10-26T03:56:34;10.48;;;4.85;;
40701;SDS011;26387;50.114;8.662;2022-10-26T03:58:59;10.63;;;4.50;;
40701;SDS011;26387;50.114;8.662;2022-10-26T04:01:25;12.38;;;4.30;;
40701;SDS011;26387;50.114;8.662;2022-10-26T04:03:50;11.57;;;4.43;;
40701;SDS011;26387;50.114;8.662;2022-10-26T04:06:16;15.38;;;4.57;;
40701;SDS011;26387;50.114;8.662;2022-10-26T04:08:41;9.88;;;4.85;;
40701;SDS011;26387;50.114;8.662;2022-10-26T04:11:07;14.80;;;4.63;;
40701;SDS011;26387;50.114;8.662;2022-10-26T04:13:33;11.35;;;5.20;;
40701;SDS011;26387;50.114;8.662;2022-10-26T04:15:58;12.27;;;5.00;;
40701;SDS011;26387;50.114;8.662;2022-10-26T04:18:24;10.77;;;4.68;;
40701;SDS011;26387;50.114;8.662;2022-10-26T04:20:50;14.30;;;4.93;;
40701;SDS011;26387;50.114;8.662;2022-10-26T04:23:16;13.43;;;5.10;;
40701;SDS011;26387;50.114;8.662;2022-10-26T04:25:43;14.52;;;4.72;;
40701;SDS011;26387;50.114;8.662;2022-10-26T04:28:09;9.95;;;5.25;;
40701;SDS011;26387;50.114;8.662;2022-10-26T04:30:36;15.40;;;6.40;;
40701;SDS011;26387;50.114;8.662;2022-10-26T04:33:03;14.02;;;5.95;;
40701;SDS011;26387;50.114;8.662;2022-10-26T04:35:29;8.90;;;5.13;;
40701;SDS011;26387;50.114;8.662;2022-10-26T04:37:56;11.25;;;5.30;;
40701;SDS011;26387;50.114;8.662;2022-10-26T04:40:26;16.15;;;5.32;;
40701;SDS011;26387;50.114;8.662;2022-10-26T04:42:52;10.65;;;5.60;;
40701;SDS011;26387;50.114;8.662;2022-10-26T04:45:18;18.08;;;5.28;;
40701;SDS011;26387;50.114;8.662;2022-10-26T04:47:44;10.88;;;5.40;;
40701;SDS011;26387;50.114;8.662;2022-10-26T04:50:10;10.48;;;5.18;;
40701;SDS011;26387;50.114;8.662;2022-10-26T04:52:37;14.02;;;5.22;;
40701;SDS011;26387;50.114;8.662;2022-10-26T04:55:03;9.70;;;5.50;;
40701;SDS011;26387;50.114;8.662;2022-10-26T04:57:30;10.48;;;5.60;;
40701;SDS011;26387;50.114;8.662;2022-10-26T04:59:59;10.52;;;5.38;;
40701;SDS011;26387;50.114;8.662;2022-10-26T05:02:26;16.17;;;5.45;;
40701;SDS011;26387;50.114;8.662;2022-10-26T05:04:53;11.73;;;5.70;;
40701;SDS011;26387;50.114;8.662;2022-10-26T05:07:18;12.38;;;5.63;;
40701;SDS011;26387;50.114;8.662;2022-10-26T05:09:44;12.45;;;5.63;;
40701;SDS011;26387;50.114;8.662;2022-10-26T05:12:09;14.88;;;5.60;;
40701;SDS011;26387;50.114;8.662;2022-10-26T05:14:35;10.70;;;5.55;;
40701;SDS011;26387;50.114;8.662;2022-10-26T05:17:00;12.43;;;5.70;;
40701;SDS011;26387;50.114;8.662;2022-10-26T05:19:26;15.20;;;5.68;;
40701;SDS011;26387;50.114;8.662;2022-10-26T05:21:52;9.88;;;5.90;;
40701;SDS011;26387;50.114;8.662;2022-10-26T05:24:17;14.60;;;5.88;;
40701;SDS011;26387;50.114;8.662;2022-10-26T05:26:44;13.30;;;6.38;;
40701;SDS011;26387;50.114;8.662;2022-10-26T05:29:09;14.80;;;5.72;;
40701;SDS011;26387;50.114;8.662;2022-10-26T05:31:35;12.43;;;5.90;;
40701;SDS011;26387;50.114;8.662;2022-10-26T05:34:01;8.20;;;5.55;;
40701;SDS011;26387;50.114;8.662;2022-10-26T05:36:26;12.75;;;5.68;;
40701;SDS011;26387;50.114;8.662;2022-10-26T05:38:52;11.77;;;5.20;;
40701;SDS011;26387;50.114;8.662;2022-10-26T05:41:17;12.68;;;6.05;;
40701;SDS011;26387;50.114;8.662;2022-10-26T05:43:45;14.43;;;5.40;;
40701;SDS011;26387;50.114;8.662;2022-10-26T05:46:12;12.38;;;5.68;;
40701;SDS011;26387;50.114;8.662;2022-10-26T05:48:37;9.38;;;5.30;;
40701;SDS011;26387;50.114;8.662;2022-10-26T05:51:03;19.80;;;6.15;;
40701;SDS011;26387;50.114;8.662;2022-10-26T05:53:29;9.95;;;5.05;;
40701;SDS011;26387;50.114;8.662;2022-10-26T05:55:55;13.60;;;5.82;;
40701;SDS011;26387;50.114;8.662;2022-10-26T05:58:22;11.50;;;5.78;;
40701;SDS011;26387;50.114;8.662;2022-10-26T06:06:11;11.35;;;5.20;;
40701;SDS011;26387;50.114;8.662;2022-10-26T06:08:37;11.27;;;5.72;;
40701;SDS011;26387;50.114;8.662;2022-10-26T06:11:03;15.52;;;5.72;;
40701;SDS011;26387;50.114;8.662;2022-10-26T06:13:31;17.33;;;5.55;;
40701;SDS011;26387;50.114;8.662;2022-10-26T06:18:50;11.60;;;5.00;;
40701;SDS011;26387;50.114;8.662;2022-10-26T06:24:35;11.85;;;5.00;;
40701;SDS011;26387;50.114;8.662;2022-10-26T06:30:04;8.77;;;4.85;;
40701;SDS011;26387;50.114;8.662;2022-10-26T06:32:34;18.27;;;6.07;;
40701;SDS011;26387;50.114;8.662;2022-10-26T06:37:55;12.82;;;5.20;;
40701;SDS011;26387;50.114;8.662;2022-10-26T06:40:26;12.75;;;5.28;;
40701;SDS011;26387;50.114;8.662;2022-10-26T06:42:54;18.15;;;5.85;;
40701;SDS011;26387;50.114;8.662;2022-10-26T06:45:19;23.25;;;6.65;;
40701;SDS011;26387;50.114;8.662;2022-10-26T06:50:45;42.85;;;8.20;;
40701;SDS011;26387;50.114;8.662;2022-10-26T06:53:26;26.02;;;7.18;;
40701;SDS011;26387;50.114;8.662;2022-10-26T06:56:14;30.10;;;6.82;;
40701;SDS011;26387;50.114;8.662;2022-10-26T06:58:40;15.45;;;6.15;;
40701;SDS011;26387;50.114;8.662;2022-10-26T07:01:09;14.73;;;5.32;;
40701;SDS011;26387;50.114;8.662;2022-10-26T07:03:36;11.95;;;5.60;;
40701;SDS011;26387;50.114;8.662;2022-10-26T07:06:02;13.05;;;5.07;;
40701;SDS011;26387;50.114;8.662;2022-10-26T07:08:29;16.55;;;5.55;;
40701;SDS011;26387;50.114;8.662;2022-10-26T07:10:55;13.13;;;5.63;;
40701;SDS011;26387;50.114;8.662;2022-10-26T07:13:21;11.93;;;5.15;;
40701;SDS011;26387;50.114;8.662;2022-10-26T07:15:47;14.95;;;4.97;;
40701;SDS011;26387;50.114;8.662;2022-10-26T07:18:12;11.32;;;5.55;;
40701;SDS011;26387;50.114;8.662;2022-10-26T07:20:39;11.13;;;4.97;;
40701;SDS011;26387;50.114;8.662;2022-10-26T07:23:05;11.32;;;5.07;;
40701;SDS011;26387;50.114;8.662;2022-10-26T07:25:32;13.25;;;5.25;;
40701;SDS011;26387;50.114;8.662;2022-10-26T07:27:59;13.82;;;5.70;;
40701;SDS011;26387;50.114;8.662;2022-10-26T07:30:25;15.27;;;5.47;;
40701;SDS011;26387;50.114;8.662;2022-10-26T07:32:59;12.05;;;4.65;;
40701;SDS011;26387;50.114;8.662;2022-10-26T07:35:33;10.55;;;4.45;;
40701;SDS011;26387;50.114;8.662;2022-10-26T07:37:59;12.27;;;5.32;;
40701;SDS011;26387;50.114;8.662;2022-10-26T07:40:25;9.70;;;5.25;;
40701;SDS011;26387;50.114;8.662;2022-10-26T07:42:51;15.48;;;4.93;;
40701;SDS011;26387;50.114;8.662;2022-10-26T07:45:19;13.93;;;5.43;;
40701;SDS011;26387;50.114;8.662;2022-10-26T07:47:45;13.23;;;5.55;;
40701;SDS011;26387;50.114;8.662;2022-10-26T07:50:11;13.23;;;5.30;;
40701;SDS011;26387;50.114;8.662;2022-10-26T07:52:37;15.98;;;5.05;;
40701;SDS011;26387;50.114;8.662;2022-10-26T07:55:05;14.32;;;5.10;;
40701;SDS011;26387;50.114;8.662;2022-10-26T07:57:32;16.35;;;5.40;;
40701;SDS011;26387;50.114;8.662;2022-10-26T07:59:58;10.48;;;5.25;;
40701;SDS011;26387;50.114;8.662;2022-10-26T08:02:24;11.25;;;5.18;;
40701;SDS011;26387;50.114;8.662;2022-10-26T08:04:50;16.42;;;5.28;;
40701;SDS011;26387;50.114;8.662;2022-10-26T08:07:16;10.95;;;5.68;;
40701;SDS011;26387;50.114;8.662;2022-10-26T08:09:42;16.10;;;5.72;;
40701;SDS011;26387;50.114;8.662;2022-10-26T08:12:08;17.55;;;5.30;;
40701;SDS011;26387;50.114;8.662;2022-10-26T08:14:34;17.30;;;5.45;;
40701;SDS011;26387;50.114;8.662;2022-10-26T08:17:00;22.98;;;6.40;;
40701;SDS011;26387;50.114;8.662;2022-10-26T08:19:26;13.27;;;5.68;;
40701;SDS011;26387;50.114;8.662;2022-10-26T08:21:51;15.07;;;5.78;;
40701;SDS011;26387;50.114;8.662;2022-10-26T08:24:17;15.98;;;5.90;;
40701;SDS011;26387;50.114;8.662;2022-10-26T08:26:44;15.23;;;5.82;;
40701;SDS011;26387;50.114;8.662;2022-10-26T08:29:10;17.35;;;5.45;;
40701;SDS011;26387;50.114;8.662;2022-10-26T08:31:36;14.88;;;5.85;;
40701;SDS011;26387;50.114;8.662;2022-10-26T08:34:02;12.85;;;5.45;;
40701;SDS011;26387;50.114;8.662;2022-10-26T08:36:28;20.52;;;5.70;;
40701;SDS011;26387;50.114;8.662;2022-10-26T08:38:54;18.25;;;5.72;;
40701;SDS011;26387;50.114;8.662;2022-10-26T08:41:23;13.05;;;5.43;;
40701;SDS011;26387;50.114;8.662;2022-10-26T08:43:53;18.08;;;5.32;;
40701;SDS011;26387;50.114;8.662;2022-10-26T08:46:22;17.58;;;6.20;;
40701;SDS011;26387;50.114;8.662;2022-10-26T08:48:51;13.38;;;4.75;;
40701;SDS011;26387;50.114;8.662;2022-10-26T08:51:21;13.73;;;5.57;;
40701;SDS011;26387;50.114;8.662;2022-10-26T08:53:53;11.32;;;5.00;;
40701;SDS011;26387;50.114;8.662;2022-10-26T08:56:38;14.68;;;5.63;;
40701;SDS011;26387;50.114;8.662;2022-10-26T08:59:16;13.07;;;5.47;;
40701;SDS011;26387;50.114;8.662;2022-10-26T09:01:45;21.58;;;5.82;;
40701;SDS011;26387;50.114;8.662;2022-10-26T09:04:11;9.50;;;5.00;;
40701;SDS011;26387;50.114;8.662;2022-10-26T09:11:54;15.27;;;5.53;;
40701;SDS011;26387;50.114;8.662;2022-10-26T09:14:24;12.75;;;5.70;;
40701;SDS011;26387;50.114;8.662;2022-10-26T09:17:17;13.95;;;5.30;;
40701;SDS011;26387;50.114;8.662;2022-10-26T09:22:21;15.90;;;5.17;;
40701;SDS011;26387;50.114;8.662;2022-10-26T09:24:52;17.52;;;5.60;;
40701;SDS011;26387;50.114;8.662;2022-10-26T09:27:20;16.98;;;5.82;;
40701;SDS011;26387;50.114;8.662;2022-10-26T09:29:48;14.20;;;5.60;;
40701;SDS011;26387;50.114;8.662;2022-10-26T09:32:16;18.30;;;6.60;;
40701;SDS011;26387;50.114;8.662;2022-10-26T09:34:47;24.25;;;5.22;;
40701;SDS011;26387;50.114;8.662;2022-10-26T09:37:22;13.65;;;6.07;;
40701;SDS011;26387;50.114;8.662;2022-10-26T09:39:51;16.33;;;5.72;;
40701;SDS011;26387;50.114;8.662;2022-10-26T09:43:05;14.98;;;6.05;;
40701;SDS011;26387;50.114;8.662;2022-10-26T09:47:48;17.97;;;6.03;;
40701;SDS011;26387;50.114;8.662;2022-10-26T09:50:21;11.75;;;5.57;;
40701;SDS011;26387;50.114;8.662;2022-10-26T09:52:49;10.57;;;4.95;;
40701;SDS011;26387;50.114;8.662;2022-10-26T09:55:14;15.05;;;5.03;;
40701;SDS011;26387;50.114;8.662;2022-10-26T09:57:42;13.45;;;5.72;;
40701;SDS011;26387;50.114;8.662;2022-10-26T10:00:15;11.80;;;5.47;;
40701;SDS011;26387;50.114;8.662;2022-10-26T10:02:42;13.18;;;5.25;;
40701;SDS011;26387;50.114;8.662;2022-10-26T10:05:25;19.45;;;5.60;;
40701;SDS011;26387;50.114;8.662;2022-10-26T10:07:51;17.33;;;4.90;;
40701;SDS011;26387;50.114;8.662;2022-10-26T10:10:19;14.48;;;4.70;;
40701;SDS011;26387;50.114;8.662;2022-10-26T10:12:46;13.45;;;4.97;;
40701;SDS011;26387;50.114;8.662;2022-10-26T10:15:24;11.07;;;5.13;;
40701;SDS011;26387;50.114;8.662;2022-10-26T10:17:51;10.05;;;4.47;;
40701;SDS011;26387;50.114;8.662;2022-10-26T10:20:21;15.45;;;4.75;;
40701;SDS011;26387;50.114;8.662;2022-10-26T10:22:52;22.13;;;4.68;;
40701;SDS011;26387;50.114;8.662;2022-10-26T10:25:31;11.68;;;4.65;;
40701;SDS011;26387;50.114;8.662;2022-10-26T10:28:01;10.45;;;4.03;;
40701;SDS011;26387;50.114;8.662;2022-10-26T10:30:51;14.60;;;4.75;;
40701;SDS011;26387;50.114;8.662;2022-10-26T10:33:18;13.05;;;4.55;;
40701;SDS011;26387;50.114;8.662;2022-10-26T10:35:48;9.88;;;4.07;;
40701;SDS011;26387;50.114;8.662;2022-10-26T10:38:16;13.05;;;4.22;;
40701;SDS011;26387;50.114;8.662;2022-10-26T10:40:50;14.98;;;4.65;;
40701;SDS011;26387;50.114;8.662;2022-10-26T10:43:22;9.07;;;3.90;;
40701;SDS011;26387;50.114;8.662;2022-10-26T10:45:50;11.02;;;3.88;;
40701;SDS011;26387;50.114;8.662;2022-10-26T10:48:18;9.93;;;4.13;;
40701;SDS011;26387;50.114;8.662;2022-10-26T10:50:54;9.48;;;4.20;;
40701;SDS011;26387;50.114;8.662;2022-10-26T10:56:05;10.90;;;4.40;;
40701;SDS011;26387;50.114;8.662;2022-10-26T11:01:38;17.48;;;4.47;;
40701;SDS011;26387;50.114;8.662;2022-10-26T11:07:15;10.05;;;3.95;;
40701;SDS011;26387;50.114;8.662;2022-10-26T11:09:42;12.48;;;4.18;;
40701;SDS011;26387;50.114;8.662;2022-10-26T11:14:57;13.80;;;3.90;;
40701;SDS011;26387;50.114;8.662;2022-10-26T11:17:33;8.73;;;4.30;;
40701;SDS011;26387;50.114;8.662;2022-10-26T11:20:11;11.75;;;4.10;;
40701;SDS011;26387;50.114;8.662;2022-10-26T11:22:52;12.05;;;4.50;;
40701;SDS011;26387;50.114;8.662;2022-10-26T11:25:29;13.65;;;4.32;;
40701;SDS011;26387;50.114;8.662;2022-10-26T11:28:19;16.30;;;4.15;;
40701;SDS011;26387;50.114;8.662;2022-10-26T11:30:54;18.92;;;10.20;;
40701;SDS011;26387;50.114;8.662;2022-10-26T11:33:25;16.85;;;4.68;;
40701;SDS011;26387;50.114;8.662;2022-10-26T11:36:02;16.67;;;4.53;;
40701;SDS011;26387;50.114;8.662;2022-10-26T11:38:47;23.83;;;4.45;;
40701;SDS011;26387;50.114;8.662;2022-10-26T11:41:32;9.85;;;4.00;;
40701;SDS011;26387;50.114;8.662;2022-10-26T11:46:46;11.10;;;3.60;;
40701;SDS011;26387;50.114;8.662;2022-10-26T11:49:16;10.35;;;3.92;;
40701;SDS011;26387;50.114;8.662;2022-10-26T11:52:12;7.57;;;3.28;;
40701;SDS011;26387;50.114;8.662;2022-10-26T11:55:00;7.75;;;3.70;;
40701;SDS011;26387;50.114;8.662;2022-10-26T11:57:28;12.55;;;4.45;;
40701;SDS011;26387;50.114;8.662;2022-10-26T11:59:59;12.98;;;4.03;;
40701;SDS011;26387;50.114;8.662;2022-10-26T12:02:28;11.50;;;4.00;;
40701;SDS011;26387;50.114;8.662;2022-10-26T12:07:29;11.02;;;3.70;;
40701;SDS011;26387;50.114;8.662;2022-10-26T12:09:56;10.35;;;3.78;;
40701;SDS011;26387;50.114;8.662;2022-10-26T12:12:35;10.85;;;3.95;;
40701;SDS011;26387;50.114;8.662;2022-10-26T12:15:17;10.07;;;3.78;;
40701;SDS011;26387;50.114;8.662;2022-10-26T12:18:00;15.23;;;3.38;;
40701;SDS011;26387;50.114;8.662;2022-10-26T12:23:38;9.13;;;3.40;;
40701;SDS011;26387;50.114;8.662;2022-10-26T12:28:47;9.50;;;3.38;;
40701;SDS011;26387;50.114;8.662;2022-10-26T12:31:58;11.40;;;3.55;;
40701;SDS011;26387;50.114;8.662;2022-10-26T12:33:59;12.45;;;4.35;;
40701;SDS011;26387;50.114;8.662;2022-10-26T13:00:26;13.57;;;3.40;;
40701;SDS011;26387;50.114;8.662;2022-10-26T13:02:56;12.02;;;4.90;;
40701;SDS011;26387;50.114;8.662;2022-10-26T13:07:59;9.45;;;3.45;;
40701;SDS011;26387;50.114;8.662;2022-10-26T13:10:26;18.23;;;3.75;;
40701;SDS011;26387;50.114;8.662;2022-10-26T13:12:54;10.02;;;3.55;;
40701;SDS011;26387;50.114;8.662;2022-10-26T13:15:21;10.05;;;3.38;;
40701;SDS011;26387;50.114;8.662;2022-10-26T13:18:01;8.23;;;3.20;;
40701;SDS011;26387;50.114;8.662;2022-10-26T13:20:51;18.10;;;3.40;;
40701;SDS011;26387;50.114;8.662;2022-10-26T13:23:36;11.70;;;3.42;;
40701;SDS011;26387;50.114;8.662;2022-10-26T13:31:02;7.57;;;3.42;;
40701;SDS011;26387;50.114;8.662;2022-10-26T13:33:30;11.23;;;3.33;;
40701;SDS011;26387;50.114;8.662;2022-10-26T13:36:02;7.35;;;3.00;;
40701;SDS011;26387;50.114;8.662;2022-10-26T13:38:39;10.52;;;3.28;;
40701;SDS011;26387;50.114;8.662;2022-10-26T13:41:06;7.35;;;2.88;;
40701;SDS011;26387;50.114;8.662;2022-10-26T13:43:38;7.28;;;3.08;;
40701;SDS011;26387;50.114;8.662;2022-10-26T13:46:04;7.72;;;3.05;;
40701;SDS011;26387;50.114;8.662;2022-10-26T13:48:38;10.02;;;3.13;;
40701;SDS011;26387;50.114;8.662;2022-10-26T13:51:20;9.15;;;3.17;;
40701;SDS011;26387;50.114;8.662;2022-10-26T13:53:51;16.02;;;3.20;;
40701;SDS011;26387;50.114;8.662;2022-10-26T13:56:34;14.00;;;3.13;;
40701;SDS011;26387;50.114;8.662;2022-10-26T13:59:11;8.82;;;3.30;;
40701;SDS011;26387;50.114;8.662;2022-10-26T14:01:37;7.65;;;2.90;;
40701;SDS011;26387;50.114;8.662;2022-10-26T14:04:15;14.98;;;3.05;;
40701;SDS011;26387;50.114;8.662;2022-10-26T14:06:51;9.07;;;3.78;;
40701;SDS011;26387;50.114;8.662;2022-10-26T14:09:19;10.73;;;3.40;;
40701;SDS011;26387;50.114;8.662;2022-10-26T14:11:49;13.63;;;3.63;;
40701;SDS011;26387;50.114;8.662;2022-10-26T14:14:18;14.45;;;3.60;;
40701;SDS011;26387;50.114;8.662;2022-10-26T14:16:48;8.70;;;2.90;;
40701;SDS011;26387;50.114;8.662;2022-10-26T14:19:36;9.07;;;2.63;;
40701;SDS011;26387;50.114;8.662;2022-10-26T14:22:03;13.15;;;3.60;;
40701;SDS011;26387;50.114;8.662;2022-10-26T14:24:30;9.48;;;3.05;;
40701;SDS011;26387;50.114;8.662;2022-10-26T14:26:57;7.95;;;3.22;;
40701;SDS011;26387;50.114;8.662;2022-10-26T14:29:24;10.18;;;2.97;;
40701;SDS011;26387;50.114;8.662;2022-10-26T14:31:52;6.47;;;2.80;;
40701;SDS011;26387;50.114;8.662;2022-10-26T14:34:19;12.35;;;2.90;;
40701;SDS011;26387;50.114;8.662;2022-10-26T14:36:49;15.07;;;2.92;;
40701;SDS011;26387;50.114;8.662;2022-10-26T14:39:22;7.47;;;2.80;;
40701;SDS011;26387;50.114;8.662;2022-10-26T14:42:00;7.75;;;2.58;;
40701;SDS011;26387;50.114;8.662;2022-10-26T14:44:29;13.70;;;2.70;;
40701;SDS011;26387;50.114;8.662;2022-10-26T14:46:55;15.18;;;2.78;;
40701;SDS011;26387;50.114;8.662;2022-10-26T14:49:21;8.15;;;2.70;;
40701;SDS011;26387;50.114;8.662;2022-10-26T14:51:57;8.82;;;2.50;;
40701;SDS011;26387;50.114;8.662;2022-10-26T14:54:25;10.15;;;2.80;;
40701;SDS011;26387;50.114;8.662;2022-10-26T14:56:52;7.63;;;3.05;;
40701;SDS011;26387;50.114;8.662;2022-10-26T14:59:26;13.07;;;3.15;;
40701;SDS011;26387;50.114;8.662;2022-10-26T15:01:54;17.38;;;3.15;;
40701;SDS011;26387;50.114;8.662;2022-10-26T15:04:33;15.77;;;3.75;;
40701;SDS011;26387;50.114;8.662;2022-10-26T15:12:17;9.32;;;3.05;;
40701;SDS011;26387;50.114;8.662;2022-10-26T15:14:49;11.43;;;3.10;;
40701;SDS011;26387;50.114;8.662;2022-10-26T15:17:20;8.68;;;3.20;;
40701;SDS011;26387;50.114;8.662;2022-10-26T15:19:48;8.70;;;3.28;;
40701;SDS011;26387;50.114;8.662;2022-10-26T15:22:22;7.75;;;2.78;;
40701;SDS011;26387;50.114;8.662;2022-10-26T15:24:51;8.35;;;3.08;;
40701;SDS011;26387;50.114;8.662;2022-10-26T15:27:19;11.85;;;2.88;;
40701;SDS011;26387;50.114;8.662;2022-10-26T15:29:51;6.43;;;2.80;;
40701;SDS011;26387;50.114;8.662;2022-10-26T15:32:32;8.55;;;3.03;;
40701;SDS011;26387;50.114;8.662;2022-10-26T15:37:38;11.27;;;2.45;;
40701;SDS011;26387;50.114;8.662;2022-10-26T15:40:04;9.30;;;2.63;;
40701;SDS011;26387;50.114;8.662;2022-10-26T15:42:30;6.53;;;2.72;;
40701;SDS011;26387;50.114;8.662;2022-10-26T15:44:56;11.00;;;2.90;;
40701;SDS011;26387;50.114;8.662;2022-10-26T15:47:32;10.75;;;3.00;;
40701;SDS011;26387;50.114;8.662;2022-10-26T15:49:58;7.90;;;2.88;;
40701;SDS011;26387;50.114;8.662;2022-10-26T15:52:24;11.73;;;2.97;;
40701;SDS011;26387;50.114;8.662;2022-10-26T15:54:49;10.65;;;3.00;;
40701;SDS011;26387;50.114;8.662;2022-10-26T15:57:15;12.52;;;3.95;;
40701;SDS011;26387;50.114;8.662;2022-10-26T15:59:40;10.98;;;3.95;;
40701;SDS011;26387;50.114;8.662;2022-10-26T16:02:13;14.10;;;3.40;;
40701;SDS011;26387;50.114;8.662;2022-10-26T16:04:39;9.98;;;3.75;;
40701;SDS011;26387;50.114;8.662;2022-10-26T16:07:05;11.95;;;3.40;;
40701;SDS011;26387;50.114;8.662;2022-10-26T16:09:35;13.95;;;3.72;;
40701;SDS011;26387;50.114;8.662;2022-10-26T16:12:00;11.65;;;3.10;;
40701;SDS011;26387;50.114;8.662;2022-10-26T16:14:26;10.75;;;3.03;;
40701;SDS011;26387;50.114;8.662;2022-10-26T16:16:52;12.07;;;3.58;;
40701;SDS011;26387;50.114;8.662;2022-10-26T16:19:17;7.07;;;3.30;;
40701;SDS011;26387;50.114;8.662;2022-10-26T16:21:43;14.18;;;3.70;;
40701;SDS011;26387;50.114;8.662;2022-10-26T16:24:09;11.35;;;3.45;;
40701;SDS011;26387;50.114;8.662;2022-10-26T16:26:34;10.00;;;3.15;;
40701;SDS011;26387;50.114;8.662;2022-10-26T16:29:00;9.25;;;3.13;;
40701;SDS011;26387;50.114;8.662;2022-10-26T16:31:25;11.05;;;3.22;;
40701;SDS011;26387;50.114;8.662;2022-10-26T16:33:51;8.32;;;3.53;;
40701;SDS011;26387;50.114;8.662;2022-10-26T16:36:16;7.53;;;3.30;;
40701;SDS011;26387;50.114;8.662;2022-10-26T16:38:42;19.88;;;4.13;;
40701;SDS011;26387;50.114;8.662;2022-10-26T16:41:09;10.13;;;4.18;;
40701;SDS011;26387;50.114;8.662;2022-10-26T16:43:37;10.40;;;3.83;;
40701;SDS011;26387;50.114;8.662;2022-10-26T16:46:12;7.57;;;3.55;;
40701;SDS011;26387;50.114;8.662;2022-10-26T16:48:43;10.00;;;3.70;;
40701;SDS011;26387;50.114;8.662;2022-10-26T16:51:12;9.52;;;3.10;;
40701;SDS011;26387;50.114;8.662;2022-10-26T16:53:39;9.60;;;3.83;;